createdAt,value
2019-04-03T00:00:04.771Z,53.59
2019-04-03T00:01:04.884Z,53.69
2019-04-03T00:02:04.752Z,53.87
2019-04-03T00:03:04.814Z,53.57
2019-04-03T00:04:04.732Z,54.00
2019-04-03T00:05:04.574Z,53.69
2019-04-03T00:06:05.495Z,53.69
2019-04-03T00:07:05.563Z,53.80
2019-04-03T00:08:05.990Z,54.07
2019-04-03T00:09:04.761Z,54.10
2019-04-03T00:10:06.189Z,53.97
2019-04-03T00:11:04.047Z,54.30
2019-04-03T00:12:04.027Z,54.20
2019-04-03T00:13:04.018Z,54.47
2019-04-03T00:14:04.005Z,53.17
2019-04-03T00:15:03.992Z,54.39
2019-04-03T00:16:04.004Z,53.37
2019-04-03T00:17:04.174Z,54.50
2019-04-03T00:18:04.082Z,54.10
2019-04-03T00:19:03.949Z,54.10
2019-04-03T00:20:03.945Z,53.87
2019-04-03T00:21:03.965Z,54.10
2019-04-03T00:22:04.072Z,54.30
2019-04-03T00:23:03.916Z,54.27
2019-04-03T00:24:03.891Z,54.10
2019-04-03T00:25:03.884Z,54.39
2019-04-03T00:26:03.881Z,53.80
2019-04-03T00:27:03.866Z,54.37
2019-04-03T00:28:03.861Z,54.50
2019-04-03T00:29:03.853Z,54.37
2019-04-03T00:30:03.832Z,54.39
2019-04-03T00:31:03.819Z,54.27
2019-04-03T00:32:03.810Z,54.17
2019-04-03T00:33:03.803Z,54.20
2019-04-03T00:34:03.797Z,54.00
2019-04-03T00:35:03.796Z,54.27
2019-04-03T00:36:03.761Z,54.37
2019-04-03T00:37:03.754Z,54.20
2019-04-03T00:38:03.748Z,54.37
2019-04-03T00:39:03.732Z,54.20
2019-04-03T00:40:03.732Z,54.37
2019-04-03T00:41:03.720Z,54.07
2019-04-03T00:42:03.701Z,53.80
2019-04-03T00:43:03.685Z,54.80
2019-04-03T00:44:03.683Z,54.20
2019-04-03T00:45:03.669Z,54.80
2019-04-03T00:46:03.667Z,54.97
2019-04-03T00:47:03.660Z,54.77
2019-04-03T00:48:03.636Z,55.60
2019-04-03T00:49:03.627Z,55.30
2019-04-03T00:50:03.617Z,55.50
2019-04-03T00:51:03.605Z,55.17
2019-04-03T00:52:03.633Z,55.10
2019-04-03T00:53:03.597Z,54.60
2019-04-03T00:54:03.680Z,54.57
2019-04-03T00:55:03.566Z,55.00
2019-04-03T00:56:03.610Z,55.80
2019-04-03T00:57:03.546Z,55.20
2019-04-03T00:58:03.542Z,55.10
2019-04-03T00:59:03.515Z,55.70
2019-04-03T01:00:03.506Z,55.17
2019-04-03T01:01:03.497Z,55.40
2019-04-03T01:02:03.481Z,55.70
2019-04-03T01:03:03.584Z,55.10
2019-04-03T01:04:03.478Z,55.10
2019-04-03T01:05:03.454Z,55.17
2019-04-03T01:06:03.721Z,55.77
2019-04-03T01:07:03.470Z,55.10
2019-04-03T01:08:03.417Z,55.40
2019-04-03T01:09:03.406Z,55.57
2019-04-03T01:10:03.412Z,55.30
2019-04-03T01:11:03.384Z,55.70
2019-04-03T01:12:03.385Z,56.40
2019-04-03T01:13:03.364Z,55.57
2019-04-03T01:14:03.370Z,56.00
2019-04-03T01:15:03.361Z,56.20
2019-04-03T01:16:03.335Z,56.57
2019-04-03T01:17:04.397Z,56.00
2019-04-03T01:18:05.154Z,56.50
2019-04-03T01:19:05.090Z,56.70
2019-04-03T01:20:04.564Z,56.40
2019-04-03T01:21:04.712Z,56.40
2019-04-03T01:22:03.271Z,56.80
2019-04-03T01:23:03.268Z,56.60
2019-04-03T01:24:03.250Z,56.17
2019-04-03T01:25:03.242Z,56.20
2019-04-03T01:26:03.225Z,56.37
2019-04-03T01:27:03.248Z,56.57
2019-04-03T01:28:03.198Z,57.40
2019-04-03T01:29:03.188Z,56.70
2019-04-03T01:30:03.185Z,57.20
2019-04-03T01:31:03.304Z,57.00
2019-04-03T01:32:03.159Z,57.10
2019-04-03T01:33:03.457Z,56.87
2019-04-03T01:34:03.134Z,57.00
2019-04-03T01:35:03.122Z,57.17
2019-04-03T01:36:03.117Z,57.50
2019-04-03T01:37:03.108Z,57.30
2019-04-03T01:38:03.100Z,57.50
2019-04-03T01:39:03.089Z,57.28
2019-04-03T01:40:03.120Z,57.37
2019-04-03T01:41:03.062Z,57.68
2019-04-03T01:42:03.113Z,58.78
2019-04-03T01:43:03.041Z,59.61
2019-04-03T01:44:03.227Z,59.11
2019-04-03T01:45:03.013Z,59.11
2019-04-03T01:46:03.003Z,58.58
2019-04-03T01:47:02.993Z,58.50
2019-04-03T01:48:02.992Z,58.48
2019-04-03T01:49:02.974Z,59.28
2019-04-03T01:50:02.975Z,58.61
2019-04-03T01:51:02.947Z,58.98
2019-04-03T01:52:02.944Z,59.58
2019-04-03T01:53:02.927Z,59.11
2019-04-03T01:54:03.636Z,59.11
2019-04-03T01:55:04.063Z,59.08
2019-04-03T01:56:05.106Z,59.08
2019-04-03T01:57:02.885Z,58.91
2019-04-03T01:58:02.881Z,59.70
2019-04-03T01:59:02.868Z,60.28
2019-04-03T02:00:02.861Z,60.41
2019-04-03T02:01:02.852Z,59.38
2019-04-03T02:02:03.025Z,59.68
2019-04-03T02:03:02.826Z,61.11
2019-04-03T02:04:02.812Z,61.08
2019-04-03T02:05:02.812Z,61.11
2019-04-03T02:06:02.793Z,60.68
2019-04-03T02:07:02.791Z,60.78
2019-04-03T02:08:02.815Z,60.21
2019-04-03T02:09:02.755Z,60.38
2019-04-03T02:10:02.795Z,60.91
2019-04-03T02:11:02.917Z,61.08
2019-04-03T02:12:02.724Z,60.48
2019-04-03T02:13:02.730Z,61.28
2019-04-03T02:14:02.727Z,61.28
2019-04-03T02:15:02.702Z,61.91
2019-04-03T02:16:02.691Z,62.48
2019-04-03T02:17:02.694Z,61.98
2019-04-03T02:18:02.660Z,62.28
2019-04-03T02:19:02.794Z,62.38
2019-04-03T02:20:02.651Z,61.88
2019-04-03T02:21:02.629Z,61.78
2019-04-03T02:22:02.624Z,60.11
2019-04-03T02:23:02.614Z,60.68
2019-04-03T02:24:02.609Z,61.88
2019-04-03T02:25:02.611Z,61.31
2019-04-03T02:26:03.053Z,61.41
2019-04-03T02:27:03.334Z,60.18
2019-04-03T02:28:04.057Z,59.68
2019-04-03T02:29:04.406Z,61.08
2019-04-03T02:30:02.543Z,61.98
2019-04-03T02:31:02.533Z,61.01
2019-04-03T02:32:02.762Z,61.31
2019-04-03T02:33:02.499Z,60.71
2019-04-03T02:34:03.184Z,61.28
2019-04-03T02:35:06.480Z,60.61
2019-04-03T02:36:03.478Z,61.81
2019-04-03T02:37:02.476Z,60.68
2019-04-03T02:38:02.564Z,60.08
2019-04-03T02:39:02.652Z,61.18
2019-04-03T02:40:02.447Z,61.61
2019-04-03T02:41:03.939Z,62.08
2019-04-03T02:42:02.425Z,62.18
2019-04-03T02:43:02.497Z,61.41
2019-04-03T02:44:02.388Z,61.48
2019-04-03T02:45:02.412Z,60.88
2019-04-03T02:46:02.394Z,60.91
2019-04-03T02:47:02.376Z,61.18
2019-04-03T02:48:04.559Z,60.48
2019-04-03T02:49:02.336Z,60.38
2019-04-03T02:50:02.373Z,60.68
2019-04-03T02:51:02.334Z,61.38
2019-04-03T02:52:02.331Z,60.41
2019-04-03T02:53:02.475Z,60.91
2019-04-03T02:54:03.172Z,61.21
2019-04-03T02:55:02.587Z,61.08
2019-04-03T02:56:02.259Z,61.28
2019-04-03T02:57:02.597Z,60.28
2019-04-03T02:58:02.239Z,60.31
2019-04-03T02:59:02.311Z,60.78
2019-04-03T03:00:02.234Z,61.08
2019-04-03T03:01:05.239Z,61.08
2019-04-03T03:02:02.194Z,61.58
2019-04-03T03:03:02.184Z,61.61
2019-04-03T03:04:02.182Z,60.91
2019-04-03T03:05:02.457Z,61.28
2019-04-03T03:06:02.158Z,62.28
2019-04-03T03:07:04.476Z,62.41
2019-04-03T03:08:02.149Z,62.18
2019-04-03T03:09:02.135Z,62.81
2019-04-03T03:10:02.455Z,62.58
2019-04-03T03:11:02.106Z,62.88
2019-04-03T03:12:02.295Z,62.88
2019-04-03T03:13:02.594Z,62.92
2019-04-03T03:14:02.406Z,63.08
2019-04-03T03:15:02.169Z,63.01
2019-04-03T03:16:02.140Z,63.18
2019-04-03T03:17:02.210Z,63.08
2019-04-03T03:18:02.045Z,62.81
2019-04-03T03:19:02.021Z,62.71
2019-04-03T03:20:05.287Z,62.51
2019-04-03T03:21:01.990Z,62.78
2019-04-03T03:22:01.980Z,63.42
2019-04-03T03:23:01.986Z,63.21
2019-04-03T03:24:02.034Z,63.89
2019-04-03T03:25:02.449Z,63.48
2019-04-03T03:26:04.158Z,63.58
2019-04-03T03:27:01.935Z,63.58
2019-04-03T03:28:01.948Z,63.08
2019-04-03T03:29:15.112Z,63.18
2019-04-03T03:30:27.721Z,63.98
2019-04-03T03:31:05.249Z,63.48
2019-04-03T03:32:12.682Z,63.98
2019-04-03T03:33:24.357Z,62.88
2019-04-03T03:34:05.066Z,63.18
2019-04-03T03:35:11.797Z,63.28
2019-04-03T03:36:03.622Z,63.39
2019-04-03T03:37:03.116Z,63.18
2019-04-03T03:38:01.806Z,63.71
2019-04-03T03:39:01.799Z,63.58
2019-04-03T03:40:01.801Z,62.98
2019-04-03T03:41:02.069Z,62.78
2019-04-03T03:42:01.950Z,60.88
2019-04-03T03:43:05.154Z,59.68
2019-04-03T03:44:01.910Z,58.70
2019-04-03T03:45:02.066Z,58.18
2019-04-03T03:46:01.746Z,57.37
2019-04-03T03:47:02.827Z,56.87
2019-04-03T03:48:01.718Z,56.37
2019-04-03T03:49:01.731Z,56.20
2019-04-03T03:50:01.751Z,55.80
2019-04-03T03:51:01.944Z,56.37
2019-04-03T03:52:03.995Z,55.27
2019-04-03T03:53:01.803Z,55.10
2019-04-03T03:54:02.010Z,54.57
2019-04-03T03:55:01.634Z,54.80
2019-04-03T03:56:01.922Z,53.87
2019-04-03T03:57:04.872Z,54.27
2019-04-03T03:58:02.964Z,54.20
2019-04-03T03:59:01.592Z,54.39
2019-04-03T04:00:01.594Z,53.50
2019-04-03T04:01:01.566Z,53.89
2019-04-03T04:02:05.238Z,53.50
2019-04-03T04:03:01.546Z,53.59
2019-04-03T04:04:01.549Z,53.39
2019-04-03T04:05:01.775Z,53.50
2019-04-03T04:06:01.527Z,53.00
2019-04-03T04:07:03.393Z,52.59
2019-04-03T04:08:01.495Z,52.49
2019-04-03T04:09:01.489Z,52.29
2019-04-03T04:10:01.480Z,52.29
2019-04-03T04:11:01.474Z,51.69
2019-04-03T04:12:04.270Z,51.79
2019-04-03T04:13:01.502Z,52.39
2019-04-03T04:14:01.589Z,52.19
2019-04-03T04:15:01.423Z,51.79
2019-04-03T04:16:03.842Z,52.19
2019-04-03T04:17:01.674Z,52.19
2019-04-03T04:18:01.421Z,51.99
2019-04-03T04:19:01.395Z,51.99
2019-04-03T04:20:04.821Z,51.59
2019-04-03T04:21:01.706Z,51.39
2019-04-03T04:22:01.351Z,51.29
2019-04-03T04:23:01.339Z,51.39
2019-04-03T04:24:01.329Z,51.49
2019-04-03T04:25:01.311Z,51.39
2019-04-03T04:26:01.923Z,51.09
2019-04-03T04:27:03.182Z,51.29
2019-04-03T04:28:01.300Z,50.79
2019-04-03T04:29:01.530Z,50.59
2019-04-03T04:30:01.399Z,50.79
2019-04-03T04:31:01.244Z,50.79
2019-04-03T04:32:01.534Z,50.59
2019-04-03T04:33:01.231Z,50.09
2019-04-03T04:34:01.284Z,50.89
2019-04-03T04:35:01.220Z,50.99
2019-04-03T04:36:01.530Z,51.29
2019-04-03T04:37:02.886Z,51.09
2019-04-03T04:38:01.169Z,50.89
2019-04-03T04:39:01.271Z,51.12
2019-04-03T04:40:01.370Z,50.39
2019-04-03T04:41:01.827Z,50.39
2019-04-03T04:42:03.488Z,50.59
2019-04-03T04:43:03.647Z,50.29
2019-04-03T04:44:01.140Z,50.09
2019-04-03T04:45:01.503Z,50.59
2019-04-03T04:46:01.101Z,50.49
2019-04-03T04:47:01.075Z,50.59
2019-04-03T04:48:01.297Z,50.31
2019-04-03T04:49:01.050Z,50.49
2019-04-03T04:50:01.043Z,50.29
2019-04-03T04:51:01.036Z,50.99
2019-04-03T04:52:01.273Z,50.69
2019-04-03T04:53:01.026Z,50.62
2019-04-03T04:54:01.004Z,50.49
2019-04-03T04:55:02.053Z,50.29
2019-04-03T04:56:00.981Z,51.01
2019-04-03T04:57:01.026Z,50.29
2019-04-03T04:58:01.138Z,50.71
2019-04-03T04:59:00.948Z,50.42
2019-04-03T05:00:00.935Z,50.29
2019-04-03T05:01:00.922Z,50.29
2019-04-03T05:02:00.923Z,50.29
2019-04-03T05:03:02.005Z,50.89
2019-04-03T05:04:00.892Z,50.89
2019-04-03T05:05:00.897Z,50.79
2019-04-03T05:06:00.934Z,51.21
2019-04-03T05:07:00.859Z,51.12
2019-04-03T05:08:01.872Z,51.09
2019-04-03T05:09:03.257Z,50.69
2019-04-03T05:10:00.834Z,51.09
2019-04-03T05:11:00.822Z,52.39
2019-04-03T05:12:00.875Z,51.82
2019-04-03T05:13:00.799Z,51.82
2019-04-03T05:14:00.785Z,52.39
2019-04-03T05:15:00.869Z,52.22
2019-04-03T05:16:00.770Z,52.42
2019-04-03T05:17:00.749Z,52.32
2019-04-03T05:18:00.747Z,52.22
2019-04-03T05:19:09.598Z,52.52
2019-04-03T05:20:01.721Z,52.82
2019-04-03T05:21:00.852Z,52.92
2019-04-03T05:22:00.699Z,53.02
2019-04-03T05:23:00.684Z,53.32
2019-04-03T05:24:10.705Z,52.72
2019-04-03T05:25:02.084Z,53.32
2019-04-03T05:26:01.920Z,53.22
2019-04-03T05:27:02.499Z,53.22
2019-04-03T05:28:00.643Z,53.62
2019-04-03T05:29:00.624Z,54.02
2019-04-03T05:30:00.617Z,53.42
2019-04-03T05:31:00.604Z,53.62
2019-04-03T05:32:00.597Z,53.52
2019-04-03T05:33:00.710Z,54.12
2019-04-03T05:34:00.569Z,54.02
2019-04-03T05:35:00.594Z,54.12
2019-04-03T05:36:00.544Z,54.32
2019-04-03T05:37:00.681Z,53.52
2019-04-03T05:38:00.564Z,53.62
2019-04-03T05:39:02.715Z,54.43
2019-04-03T05:40:00.532Z,54.32
2019-04-03T05:41:00.557Z,54.32
2019-04-03T05:42:00.479Z,54.22
2019-04-03T05:43:00.668Z,54.22
2019-04-03T05:44:02.428Z,54.43
2019-04-03T05:45:00.456Z,53.52
2019-04-03T05:46:00.518Z,53.32
2019-04-03T05:47:00.638Z,54.12
2019-04-03T05:48:00.417Z,53.52
2019-04-03T05:49:00.438Z,54.12
2019-04-03T05:50:00.392Z,53.52
2019-04-03T05:51:00.483Z,53.92
2019-04-03T05:52:00.373Z,54.22
2019-04-03T05:53:00.363Z,54.22
2019-04-03T05:54:00.359Z,53.72
2019-04-03T05:55:00.502Z,53.92
2019-04-03T05:56:00.480Z,54.02
2019-04-03T05:57:00.320Z,53.12
2019-04-03T05:58:00.307Z,53.52
2019-04-03T05:59:02.285Z,53.52
2019-04-03T06:00:02.107Z,53.52
2019-04-03T06:01:05.697Z,53.62
2019-04-03T06:02:13.284Z,53.32
2019-04-03T06:03:01.363Z,53.12
2019-04-03T06:04:00.445Z,53.32
2019-04-03T06:05:00.254Z,52.92
2019-04-03T06:06:00.238Z,53.62
2019-04-03T06:07:00.211Z,53.12
2019-04-03T06:08:00.198Z,52.52
2019-04-03T06:09:00.388Z,53.30
2019-04-03T06:10:00.434Z,53.22
2019-04-03T06:11:03.313Z,53.02
2019-04-03T06:12:00.174Z,53.02
2019-04-03T06:13:00.143Z,52.62
2019-04-03T06:14:00.133Z,52.52
2019-04-03T06:15:00.133Z,52.32
2019-04-03T06:16:00.114Z,52.32
2019-04-03T06:17:00.351Z,52.52
2019-04-03T06:18:00.332Z,52.22
2019-04-03T06:19:00.080Z,52.42
2019-04-03T06:20:00.069Z,51.82
2019-04-03T06:21:00.057Z,51.82
2019-04-03T06:22:00.174Z,51.62
2019-04-03T06:23:00.045Z,51.82
2019-04-03T06:24:00.034Z,51.72
2019-04-03T06:25:00.093Z,53.92
2019-04-03T06:26:01.963Z,56.00
2019-04-03T06:26:59.994Z,56.60
2019-04-03T06:28:00.419Z,53.19
2019-04-03T06:28:59.981Z,49.58
2019-04-03T06:29:59.976Z,50.59
2019-04-03T06:31:00.100Z,52.19
2019-04-03T06:31:59.943Z,52.12
2019-04-03T06:33:01.753Z,52.12
2019-04-03T06:33:59.921Z,51.51
2019-04-03T06:34:59.919Z,52.42
2019-04-03T06:35:59.903Z,51.82
2019-04-03T06:36:59.930Z,52.32
2019-04-03T06:38:00.140Z,52.32
2019-04-03T06:38:59.862Z,52.32
2019-04-03T06:40:02.222Z,52.42
2019-04-03T06:40:59.851Z,52.72
2019-04-03T06:42:00.034Z,52.72
2019-04-03T06:42:59.865Z,52.62
2019-04-03T06:43:59.817Z,52.62
2019-04-03T06:44:59.802Z,52.72
2019-04-03T06:45:59.911Z,52.92
2019-04-03T06:47:00.928Z,53.32
2019-04-03T06:47:59.768Z,52.92
2019-04-03T06:48:59.755Z,53.32
2019-04-03T06:49:59.743Z,53.00
2019-04-03T06:50:59.735Z,53.02
2019-04-03T06:51:59.732Z,52.49
2019-04-03T06:52:59.731Z,52.32
2019-04-03T06:54:00.003Z,52.22
2019-04-03T06:54:59.703Z,52.39
2019-04-03T06:55:59.677Z,52.80
2019-04-03T06:56:59.953Z,51.92
2019-04-03T06:57:59.664Z,51.69
2019-04-03T06:58:59.678Z,51.69
2019-04-03T06:59:59.700Z,51.79
2019-04-03T07:00:59.627Z,51.99
2019-04-03T07:01:59.618Z,52.39
2019-04-03T07:02:59.606Z,52.19
2019-04-03T07:03:59.601Z,52.19
2019-04-03T07:05:02.363Z,52.09
2019-04-03T07:05:59.567Z,52.29
2019-04-03T07:06:59.825Z,52.49
2019-04-03T07:08:00.868Z,52.49
2019-04-03T07:08:59.536Z,52.27
2019-04-03T07:09:59.530Z,51.97
2019-04-03T07:10:59.516Z,52.19
2019-04-03T07:11:59.506Z,51.97
2019-04-03T07:12:59.494Z,51.77
2019-04-03T07:13:59.491Z,52.07
2019-04-03T07:14:59.475Z,51.97
2019-04-03T07:15:59.508Z,52.09
2019-04-03T07:17:01.298Z,51.97
2019-04-03T07:18:01.659Z,51.99
2019-04-03T07:18:59.433Z,51.89
2019-04-03T07:20:12.020Z,51.97
2019-04-03T07:21:00.559Z,52.07
2019-04-03T07:21:59.409Z,51.89
2019-04-03T07:22:59.444Z,51.67
2019-04-03T07:24:00.683Z,51.37
2019-04-03T07:24:59.370Z,51.27
2019-04-03T07:25:59.349Z,51.27
2019-04-03T07:26:59.352Z,50.96
2019-04-03T07:27:59.528Z,51.07
2019-04-03T07:28:59.522Z,51.07
2019-04-03T07:29:59.321Z,51.37
2019-04-03T07:30:59.302Z,51.46
2019-04-03T07:31:59.289Z,51.46
2019-04-03T07:32:59.284Z,51.27
2019-04-03T07:34:01.767Z,51.27
2019-04-03T07:34:59.254Z,50.96
2019-04-03T07:35:59.288Z,50.87
2019-04-03T07:36:59.241Z,50.67
2019-04-03T07:37:59.223Z,50.76
2019-04-03T07:38:59.228Z,50.57
2019-04-03T07:39:59.304Z,50.57
2019-04-03T07:40:59.194Z,50.57
2019-04-03T07:41:59.387Z,50.57
2019-04-03T07:42:59.168Z,50.87
2019-04-03T07:43:59.315Z,50.87
2019-04-03T07:45:01.405Z,50.67
2019-04-03T07:45:59.146Z,50.87
2019-04-03T07:46:59.130Z,50.87
2019-04-03T07:47:59.115Z,50.16
2019-04-03T07:49:00.547Z,50.16
2019-04-03T07:49:59.107Z,50.16
2019-04-03T07:50:59.105Z,51.17
2019-04-03T07:51:59.297Z,51.27
2019-04-03T07:52:59.063Z,50.87
2019-04-03T07:53:59.057Z,50.96
2019-04-03T07:54:59.036Z,50.76
2019-04-03T07:55:59.029Z,50.87
2019-04-03T07:56:59.029Z,50.26
2019-04-03T07:58:00.012Z,49.96
2019-04-03T07:58:59.006Z,50.16
2019-04-03T07:59:59.008Z,50.57
2019-04-03T08:00:59.019Z,50.54
2019-04-03T08:01:58.967Z,50.16
2019-04-03T08:02:59.129Z,50.37
2019-04-03T08:03:58.939Z,50.26
2019-04-03T08:05:00.634Z,50.57
2019-04-03T08:05:59.221Z,50.34
2019-04-03T08:06:59.122Z,50.54
2019-04-03T08:08:01.502Z,50.04
2019-04-03T08:09:07.260Z,50.04
2019-04-03T08:09:59.889Z,50.04
2019-04-03T08:10:59.716Z,49.44
2019-04-03T08:11:58.852Z,49.94
2019-04-03T08:13:00.132Z,49.44
2019-04-03T08:13:59.080Z,49.44
2019-04-03T08:14:59.179Z,49.64
2019-04-03T08:15:58.826Z,49.74
2019-04-03T08:16:58.812Z,49.74
2019-04-03T08:17:59.079Z,49.84
2019-04-03T08:18:58.783Z,49.74
2019-04-03T08:19:58.774Z,49.24
2019-04-03T08:21:01.473Z,49.44
2019-04-03T08:22:01.155Z,49.14
2019-04-03T08:22:58.734Z,49.24
2019-04-03T08:23:58.724Z,49.44
2019-04-03T08:24:58.750Z,49.84
2019-04-03T08:25:58.708Z,49.82
2019-04-03T08:26:59.000Z,49.52
2019-04-03T08:27:58.686Z,49.52
2019-04-03T08:29:00.686Z,49.41
2019-04-03T08:29:58.987Z,49.22
2019-04-03T08:30:58.660Z,49.52
2019-04-03T08:31:58.635Z,49.62
2019-04-03T08:32:58.635Z,49.32
2019-04-03T08:33:59.587Z,48.82
2019-04-03T08:34:58.803Z,49.02
2019-04-03T08:35:58.893Z,48.92
2019-04-03T08:37:01.342Z,49.22
2019-04-03T08:37:58.577Z,49.11
2019-04-03T08:38:58.877Z,49.02
2019-04-03T08:39:58.941Z,49.22
2019-04-03T08:40:58.537Z,48.92
2019-04-03T08:41:58.532Z,49.22
2019-04-03T08:43:00.407Z,49.72
2019-04-03T08:43:58.521Z,49.22
2019-04-03T08:44:58.517Z,48.92
2019-04-03T08:45:58.490Z,49.11
2019-04-03T08:46:58.791Z,49.02
2019-04-03T08:47:58.468Z,48.92
2019-04-03T08:48:58.455Z,48.72
2019-04-03T08:50:01.373Z,48.82
2019-04-03T08:51:00.488Z,49.32
2019-04-03T08:51:58.423Z,49.22
2019-04-03T08:52:58.415Z,49.32
2019-04-03T08:53:58.604Z,48.22
2019-04-03T08:54:58.385Z,48.32
2019-04-03T08:55:58.383Z,48.02
2019-04-03T08:56:58.369Z,47.99
2019-04-03T08:57:58.581Z,48.29
2019-04-03T08:58:58.553Z,48.11
2019-04-03T09:00:00.302Z,48.60
2019-04-03T09:00:58.328Z,48.39
2019-04-03T09:01:58.393Z,48.49
2019-04-03T09:02:58.306Z,48.42
2019-04-03T09:03:58.292Z,48.39
2019-04-03T09:04:58.285Z,48.39
2019-04-03T09:05:58.559Z,48.10
2019-04-03T09:06:58.266Z,48.10
2019-04-03T09:07:58.604Z,47.89
2019-04-03T09:08:58.768Z,48.39
2019-04-03T09:10:00.910Z,48.29
2019-04-03T09:10:58.474Z,47.89
2019-04-03T09:11:58.208Z,47.47
2019-04-03T09:12:58.211Z,47.97
2019-04-03T09:13:58.413Z,47.47
2019-04-03T09:14:58.181Z,47.47
2019-04-03T09:15:59.410Z,46.95
2019-04-03T09:16:58.160Z,46.75
2019-04-03T09:17:58.402Z,46.13
2019-04-03T09:18:58.133Z,45.43
2019-04-03T09:19:58.361Z,45.90
2019-04-03T09:20:58.115Z,45.61
2019-04-03T09:21:58.098Z,45.31
2019-04-03T09:22:58.092Z,44.89
2019-04-03T09:23:58.398Z,44.19
2019-04-03T09:24:59.918Z,44.99
2019-04-03T09:25:58.364Z,44.79
2019-04-03T09:26:58.070Z,44.89
2019-04-03T09:27:58.300Z,44.87
2019-04-03T09:28:58.202Z,44.69
2019-04-03T09:29:58.253Z,44.89
2019-04-03T09:30:58.006Z,44.79
2019-04-03T09:31:57.992Z,44.87
2019-04-03T09:32:59.852Z,44.57
2019-04-03T09:33:58.605Z,44.57
2019-04-03T09:35:00.540Z,44.27
2019-04-03T09:35:59.562Z,44.46
2019-04-03T09:36:57.941Z,44.59
2019-04-03T09:37:57.941Z,44.89
2019-04-03T09:38:58.247Z,44.79
2019-04-03T09:39:58.163Z,44.38
2019-04-03T09:40:57.894Z,44.99
2019-04-03T09:41:57.902Z,44.99
2019-04-03T09:42:57.880Z,45.21
2019-04-03T09:43:57.866Z,45.31
2019-04-03T09:44:57.863Z,44.71
2019-04-03T09:46:00.321Z,45.21
2019-04-03T09:46:57.847Z,45.63
2019-04-03T09:47:58.198Z,45.73
2019-04-03T09:48:58.006Z,46.23
2019-04-03T09:49:57.807Z,45.83
2019-04-03T09:50:57.797Z,46.05
2019-04-03T09:51:57.785Z,45.65
2019-04-03T09:52:57.777Z,46.15
2019-04-03T09:53:58.118Z,46.17
2019-04-03T09:54:59.762Z,46.65
2019-04-03T09:55:58.047Z,46.67
2019-04-03T09:57:03.216Z,46.57
2019-04-03T09:57:58.739Z,46.77
2019-04-03T09:58:57.715Z,46.37
2019-04-03T09:59:57.990Z,46.37
2019-04-03T10:00:57.685Z,46.19
2019-04-03T10:01:57.683Z,47.37
2019-04-03T10:02:57.666Z,47.09
2019-04-03T10:03:57.869Z,47.19
2019-04-03T10:04:58.694Z,47.99
2019-04-03T10:05:58.188Z,47.19
2019-04-03T10:06:57.625Z,47.39
2019-04-03T10:07:57.613Z,47.69
2019-04-03T10:08:57.601Z,47.49
2019-04-03T10:09:57.597Z,47.69
2019-04-03T10:10:57.583Z,47.30
2019-04-03T10:11:57.619Z,48.02
2019-04-03T10:12:57.689Z,47.72
2019-04-03T10:13:57.968Z,47.99
2019-04-03T10:14:59.262Z,47.72
2019-04-03T10:15:57.530Z,48.10
2019-04-03T10:16:57.693Z,47.81
2019-04-03T10:17:57.608Z,47.72
2019-04-03T10:18:57.496Z,47.81
2019-04-03T10:19:57.505Z,48.02
2019-04-03T10:20:57.481Z,48.11
2019-04-03T10:21:57.463Z,48.02
2019-04-03T10:22:57.450Z,48.22
2019-04-03T10:23:59.115Z,47.92
2019-04-03T10:25:00.096Z,47.61
2019-04-03T10:25:57.429Z,47.81
2019-04-03T10:26:57.408Z,47.61
2019-04-03T10:27:57.407Z,47.81
2019-04-03T10:28:57.394Z,47.81
2019-04-03T10:29:57.386Z,47.52
2019-04-03T10:30:57.365Z,48.52
2019-04-03T10:31:57.362Z,47.92
2019-04-03T10:32:59.511Z,48.72
2019-04-03T10:33:57.582Z,48.61
2019-04-03T10:34:57.841Z,48.32
2019-04-03T10:35:57.317Z,48.22
2019-04-03T10:36:57.305Z,48.34
2019-04-03T10:37:57.656Z,48.34
2019-04-03T10:38:57.292Z,48.34
2019-04-03T10:39:57.272Z,48.24
2019-04-03T10:40:57.266Z,48.14
2019-04-03T10:41:58.130Z,48.24
2019-04-03T10:42:59.868Z,48.24
2019-04-03T10:43:57.243Z,48.24
2019-04-03T10:44:57.219Z,48.24
2019-04-03T10:45:57.407Z,48.24
2019-04-03T10:46:57.196Z,48.24
2019-04-03T10:47:57.273Z,48.54
2019-04-03T10:48:58.063Z,48.34
2019-04-03T10:49:57.440Z,48.34
2019-04-03T10:50:57.455Z,48.44
2019-04-03T10:51:57.314Z,48.24
2019-04-03T10:52:57.133Z,48.24
2019-04-03T10:53:57.126Z,48.44
2019-04-03T10:54:57.355Z,48.44
2019-04-03T10:55:58.105Z,48.64
2019-04-03T10:56:57.093Z,48.04
2019-04-03T10:57:57.373Z,48.24
2019-04-03T10:59:08.863Z,48.04
2019-04-03T10:59:58.063Z,48.04
2019-04-03T11:00:59.091Z,48.04
2019-04-03T11:01:57.050Z,48.04
2019-04-03T11:02:57.345Z,48.04
2019-04-03T11:03:57.018Z,48.04
2019-04-03T11:04:59.661Z,48.24
2019-04-03T11:05:57.258Z,48.24
2019-04-03T11:06:56.988Z,48.14
2019-04-03T11:07:57.182Z,48.24
2019-04-03T11:08:56.966Z,48.34
2019-04-03T11:09:56.948Z,48.34
2019-04-03T11:10:58.105Z,48.24
2019-04-03T11:11:59.843Z,48.34
2019-04-03T11:12:56.927Z,48.34
2019-04-03T11:13:56.925Z,48.14
2019-04-03T11:14:57.240Z,48.14
2019-04-03T11:15:56.946Z,48.24
2019-04-03T11:16:56.911Z,48.24
2019-04-03T11:17:56.867Z,48.14
2019-04-03T11:19:00.686Z,48.34
2019-04-03T11:19:57.840Z,48.34
2019-04-03T11:20:56.838Z,48.14
2019-04-03T11:21:56.977Z,48.24
2019-04-03T11:23:05.958Z,48.24
2019-04-03T11:23:58.068Z,48.34
2019-04-03T11:24:56.798Z,48.34
2019-04-03T11:25:56.788Z,48.14
2019-04-03T11:26:57.018Z,48.07
2019-04-03T11:27:57.180Z,48.04
2019-04-03T11:28:56.776Z,48.26
2019-04-03T11:29:57.155Z,48.16
2019-04-03T11:31:00.583Z,48.26
2019-04-03T11:31:56.728Z,48.26
2019-04-03T11:32:56.999Z,48.24
2019-04-03T11:33:57.154Z,48.34
2019-04-03T11:34:56.690Z,48.16
2019-04-03T11:35:56.684Z,48.34
2019-04-03T11:36:59.688Z,48.16
2019-04-03T11:37:56.657Z,48.24
2019-04-03T11:39:08.888Z,48.16
2019-04-03T11:40:04.235Z,48.26
2019-04-03T11:40:57.626Z,48.26
2019-04-03T11:41:56.837Z,48.57
2019-04-03T11:42:56.611Z,48.46
2019-04-03T11:43:56.595Z,48.36
2019-04-03T11:44:56.582Z,48.16
2019-04-03T11:45:56.566Z,48.36
2019-04-03T11:46:56.915Z,48.14
2019-04-03T11:47:56.828Z,48.26
2019-04-03T11:48:56.547Z,48.44
2019-04-03T11:49:56.687Z,48.16
2019-04-03T11:50:57.523Z,48.36
2019-04-03T11:51:56.525Z,48.36
2019-04-03T11:52:56.496Z,48.46
2019-04-03T11:53:56.562Z,48.66
2019-04-03T11:54:56.471Z,48.46
2019-04-03T11:55:56.466Z,48.57
2019-04-03T11:56:57.201Z,48.54
2019-04-03T11:57:56.439Z,48.66
2019-04-03T11:58:56.434Z,48.46
2019-04-03T11:59:57.067Z,48.26
2019-04-03T12:00:56.574Z,48.46
2019-04-03T12:01:56.438Z,48.26
2019-04-03T12:02:56.699Z,48.54
2019-04-03T12:03:56.373Z,48.46
2019-04-03T12:04:56.573Z,48.57
2019-04-03T12:05:56.360Z,48.46
2019-04-03T12:06:56.351Z,48.57
2019-04-03T12:07:57.259Z,48.46
2019-04-03T12:08:59.393Z,48.57
2019-04-03T12:09:56.380Z,48.26
2019-04-03T12:10:56.318Z,48.46
2019-04-03T12:11:56.650Z,48.57
2019-04-03T12:12:56.283Z,48.46
2019-04-03T12:13:56.269Z,48.57
2019-04-03T12:14:56.487Z,48.46
2019-04-03T12:15:58.144Z,48.57
2019-04-03T12:16:58.316Z,48.57
2019-04-03T12:17:56.540Z,48.26
2019-04-03T12:18:56.217Z,48.57
2019-04-03T12:19:56.206Z,48.66
2019-04-03T12:20:56.496Z,48.36
2019-04-03T12:21:56.513Z,48.57
2019-04-03T12:22:56.169Z,48.57
2019-04-03T12:23:58.158Z,48.66
2019-04-03T12:24:56.146Z,48.26
2019-04-03T12:25:56.145Z,48.57
2019-04-03T12:26:56.471Z,48.46
2019-04-03T12:27:56.120Z,48.57
2019-04-03T12:28:56.113Z,48.66
2019-04-03T12:29:56.178Z,48.57
2019-04-03T12:30:56.085Z,48.36
2019-04-03T12:31:56.096Z,48.57
2019-04-03T12:32:56.073Z,48.36
2019-04-03T12:34:01.127Z,48.46
2019-04-03T12:34:57.043Z,48.26
2019-04-03T12:35:56.427Z,48.46
2019-04-03T12:36:56.053Z,48.46
2019-04-03T12:37:56.018Z,48.46
2019-04-03T12:38:56.810Z,48.46
2019-04-03T12:39:56.307Z,48.36
2019-04-03T12:40:55.983Z,48.26
2019-04-03T12:41:56.042Z,48.46
2019-04-03T12:42:55.961Z,48.26
2019-04-03T12:43:55.951Z,48.57
2019-04-03T12:44:55.954Z,48.26
2019-04-03T12:45:57.788Z,48.46
2019-04-03T12:46:55.919Z,48.46
2019-04-03T12:47:55.906Z,48.26
2019-04-03T12:48:55.893Z,48.49
2019-04-03T12:49:56.550Z,48.57
2019-04-03T12:50:56.945Z,48.26
2019-04-03T12:51:55.867Z,48.58